Time;durP1;ratioP1;P1;durP2;ratioP2;P2;SDS_P1;SDS_P2;PMS_P1;PMS_P2;Temp;Humidity;BMP_temperature;BMP_pressure;BME280_temperature;BME280_humidity;BME280_pressure;Samples;Min_cycle;Max_cycle;Signal;HPM_P1;HPM_P2
2021/05/01 00:01:07;;;;;;;6.60;5.38;;;14.40;89.90;;;;;;6220971;23;20427;-88
2021/05/01 00:03:33;;;;;;;6.18;4.85;;;14.40;89.90;;;;;;6223704;23;20000;-89
2021/05/01 00:05:59;;;;;;;5.43;4.40;;;14.40;89.80;;;;;;6248691;23;20004;-90
2021/05/01 00:08:28;;;;;;;5.22;3.92;;;14.40;89.80;;;;;;6220901;23;20000;-91
2021/05/01 00:10:56;;;;;;;5.93;4.45;;;14.40;89.60;;;;;;6220550;23;20011;-90
2021/05/01 00:13:21;;;;;;;5.45;4.10;;;14.40;89.50;;;;;;6220845;23;20035;-90
2021/05/01 00:15:47;;;;;;;8.38;4.40;;;14.40;89.50;;;;;;6247351;22;20008;-89
2021/05/01 00:18:13;;;;;;;9.35;4.15;;;14.40;89.20;;;;;;6220395;23;20309;-90
2021/05/01 00:20:38;;;;;;;5.20;3.70;;;14.50;89.00;;;;;;6220530;23;20004;-91
2021/05/01 00:23:04;;;;;;;8.73;4.10;;;14.40;88.70;;;;;;6220446;23;20001;-91
2021/05/01 00:25:30;;;;;;;5.07;3.80;;;14.40;88.90;;;;;;6220772;23;20022;-91
2021/05/01 00:27:55;;;;;;;5.65;4.30;;;14.40;88.60;;;;;;6220988;23;20336;-90
2021/05/01 00:30:21;;;;;;;5.70;3.92;;;14.40;88.80;;;;;;6221667;23;20427;-90
2021/05/01 00:32:47;;;;;;;5.10;4.18;;;14.40;88.40;;;;;;6220206;23;20087;-91
2021/05/01 00:35:13;;;;;;;5.90;3.97;;;14.40;88.80;;;;;;6220919;23;20008;-91
2021/05/01 00:37:38;;;;;;;5.38;3.95;;;14.40;88.40;;;;;;6247635;23;20083;-90
2021/05/01 00:40:08;;;;;;;3.88;3.35;;;14.30;88.40;;;;;;6223276;23;20000;-89
2021/05/01 00:42:35;;;;;;;4.25;3.38;;;14.30;88.10;;;;;;6223857;23;20099;-90
2021/05/01 00:45:03;;;;;;;4.10;3.50;;;14.30;88.00;;;;;;6220987;23;20004;-90
2021/05/01 00:47:28;;;;;;;5.85;3.75;;;14.30;88.10;;;;;;6220913;23;20439;-90
2021/05/01 00:49:54;;;;;;;4.25;3.80;;;14.20;88.10;;;;;;6220892;23;20010;-90
2021/05/01 00:52:20;;;;;;;7.90;4.18;;;14.20;88.20;;;;;;6246977;22;20023;-91
2021/05/01 00:54:46;;;;;;;5.43;3.90;;;14.10;88.20;;;;;;6220501;23;20083;-91
2021/05/01 00:57:12;;;;;;;4.78;3.65;;;14.10;88.50;;;;;;6220783;23;20016;-90
2021/05/01 00:59:38;;;;;;;4.38;3.50;;;14.00;88.30;;;;;;6247381;22;20075;-91
2021/05/01 01:02:04;;;;;;;5.07;4.10;;;14.00;88.50;;;;;;6247701;23;20079;-90
2021/05/01 01:04:30;;;;;;;4.38;3.63;;;13.90;88.60;;;;;;6222380;23;20081;-90
2021/05/01 01:06:56;;;;;;;4.97;3.70;;;13.90;88.90;;;;;;6222585;23;20415;-89
2021/05/01 01:09:21;;;;;;;3.90;3.35;;;13.80;89.00;;;;;;6222453;23;20407;-90
2021/05/01 01:11:47;;;;;;;5.72;3.92;;;13.80;89.00;;;;;;6249449;23;20084;-90
2021/05/01 01:14:14;;;;;;;6.35;4.40;;;13.80;89.80;;;;;;6222778;23;20004;-91
2021/05/01 01:16:44;;;;;;;5.22;3.97;;;13.70;90.00;;;;;;6224601;23;20473;-88
2021/05/01 01:19:10;;;;;;;5.20;4.00;;;13.70;90.00;;;;;;6226242;23;20027;-90
2021/05/01 01:21:50;;;;;;;4.82;3.85;;;13.60;89.90;;;;;;6250188;22;19996;-90
2021/05/01 01:24:16;;;;;;;4.97;3.63;;;13.60;90.30;;;;;;6222361;23;20414;-90
2021/05/01 01:26:42;;;;;;;3.95;3.33;;;13.60;90.00;;;;;;6248433;22;20050;-90
2021/05/01 01:29:13;;;;;;;4.32;3.15;;;13.50;90.00;;;;;;6221991;23;20071;-90
2021/05/01 01:31:39;;;;;;;8.15;4.18;;;13.50;90.10;;;;;;6248886;23;19996;-90
2021/05/01 01:34:05;;;;;;;5.28;4.30;;;13.50;90.20;;;;;;6222271;23;20327;-91
2021/05/01 01:36:31;;;;;;;5.15;4.07;;;13.40;90.30;;;;;;6221971;23;20004;-90
2021/05/01 01:38:57;;;;;;;5.63;4.07;;;13.40;90.50;;;;;;6249110;23;20016;-91
2021/05/01 01:41:23;;;;;;;5.82;4.50;;;13.30;90.60;;;;;;6249165;22;20001;-89
2021/05/01 01:43:48;;;;;;;5.20;3.85;;;13.30;90.50;;;;;;6221925;23;20004;-91
2021/05/01 01:46:14;;;;;;;7.28;4.65;;;13.30;90.60;;;;;;6222054;23;20008;-90
2021/05/01 01:48:40;;;;;;;11.07;5.35;;;13.30;90.70;;;;;;6248857;22;20003;-90
2021/05/01 01:51:06;;;;;;;6.57;4.97;;;13.20;90.90;;;;;;6221930;23;20004;-90
2021/05/01 01:53:32;;;;;;;7.13;5.03;;;13.20;91.00;;;;;;6221951;23;20071;-90
2021/05/01 01:55:58;;;;;;;6.68;5.38;;;13.20;90.90;;;;;;6224528;23;20420;-89
2021/05/01 01:58:24;;;;;;;6.40;5.18;;;13.20;91.00;;;;;;6226246;23;20058;-89
2021/05/01 02:00:51;;;;;;;6.68;4.78;;;13.20;91.10;;;;;;6222277;23;20327;-90
2021/05/01 02:03:17;;;;;;;7.30;5.15;;;13.10;91.10;;;;;;6248777;22;19992;-90
2021/05/01 02:05:44;;;;;;;7.20;5.13;;;13.10;91.30;;;;;;6222150;23;20013;-89
2021/05/01 02:08:10;;;;;;;9.05;5.82;;;13.10;91.30;;;;;;6221814;23;20432;-89
2021/05/01 02:10:37;;;;;;;6.90;5.13;;;13.10;91.50;;;;;;6224362;23;20028;-90
2021/05/01 02:13:04;;;;;;;7.80;5.00;;;13.10;91.40;;;;;;6250612;22;19992;-90
2021/05/01 02:15:30;;;;;;;6.82;5.60;;;13.00;91.40;;;;;;6227768;23;20343;-89
2021/05/01 02:17:57;;;;;;;5.43;4.68;;;13.00;91.60;;;;;;6235376;23;20001;-89
2021/05/01 02:20:25;;;;;;;6.18;5.05;;;13.00;91.60;;;;;;6226746;23;20064;-89
2021/05/01 02:22:51;;;;;;;6.18;4.95;;;13.00;91.50;;;;;;6221708;23;20000;-89
2021/05/01 02:25:17;;;;;;;7.68;5.63;;;12.90;91.50;;;;;;6222795;23;20000;-89
2021/05/01 02:27:44;;;;;;;8.82;6.22;;;12.90;91.60;;;;;;6222702;23;20015;-90
2021/05/01 02:30:16;;;;;;;7.90;5.57;;;12.90;91.80;;;;;;6222204;23;20026;-90
2021/05/01 02:32:42;;;;;;;7.18;4.75;;;12.80;91.80;;;;;;6223398;23;20008;-88
2021/05/01 02:35:11;;;;;;;6.97;4.65;;;12.80;91.60;;;;;;6226728;23;20008;-87
2021/05/01 02:37:37;;;;;;;7.93;6.25;;;12.80;91.70;;;;;;6249413;22;20072;-90
2021/05/01 02:40:06;;;;;;;7.70;5.68;;;12.80;91.90;;;;;;6221443;23;20000;-90
2021/05/01 02:42:31;;;;;;;7.20;5.85;;;12.70;92.20;;;;;;6248198;22;20044;-90
2021/05/01 02:44:57;;;;;;;6.90;5.25;;;12.70;92.00;;;;;;6221437;23;20042;-89
2021/05/01 02:47:23;;;;;;;8.00;6.35;;;12.70;92.00;;;;;;6248219;23;20054;-90
2021/05/01 02:49:49;;;;;;;7.90;6.38;;;12.70;92.00;;;;;;6221689;23;20331;-90
2021/05/01 02:52:14;;;;;;;7.05;6.07;;;12.70;92.30;;;;;;6220670;23;20344;-90
2021/05/01 02:54:40;;;;;;;7.75;6.57;;;12.70;92.20;;;;;;6221751;23;20001;-90
2021/05/01 02:57:06;;;;;;;7.53;5.75;;;12.70;92.20;;;;;;6220834;23;20008;-90
2021/05/01 02:59:32;;;;;;;7.22;5.82;;;12.70;92.20;;;;;;6221136;23;20004;-90
2021/05/01 03:01:57;;;;;;;7.38;6.20;;;12.70;92.20;;;;;;6221287;23;19996;-89
2021/05/01 03:04:23;;;;;;;6.72;5.18;;;12.70;92.30;;;;;;6221061;23;20023;-90
2021/05/01 03:06:49;;;;;;;9.00;5.80;;;12.70;92.30;;;;;;6221301;23;20004;-90
2021/05/01 03:09:14;;;;;;;6.65;5.47;;;12.70;92.40;;;;;;6221964;23;20004;-90
2021/05/01 03:11:40;;;;;;;8.75;5.55;;;12.70;92.30;;;;;;6224471;23;20052;-88
2021/05/01 03:14:06;;;;;;;11.73;6.28;;;12.70;92.30;;;;;;6227102;23;20035;-89
2021/05/01 03:16:32;;;;;;;8.50;7.18;;;12.70;92.50;;;;;;6221526;23;20027;-90
2021/05/01 03:18:58;;;;;;;9.13;7.28;;;12.70;92.60;;;;;;6247534;22;20000;-90
2021/05/01 03:21:23;;;;;;;9.52;7.70;;;12.80;92.70;;;;;;6221258;23;20062;-89
2021/05/01 03:23:51;;;;;;;10.50;7.65;;;12.80;92.70;;;;;;6220805;23;20008;-89
2021/05/01 03:26:17;;;;;;;11.10;7.93;;;12.80;92.70;;;;;;6220458;23;20043;-90
2021/05/01 03:28:44;;;;;;;10.70;7.38;;;12.90;92.80;;;;;;6221037;23;20008;-90
2021/05/01 03:31:10;;;;;;;10.65;8.20;;;12.90;92.70;;;;;;6220783;23;20007;-90
2021/05/01 03:33:36;;;;;;;11.20;8.88;;;12.90;92.90;;;;;;6221422;23;20095;-89
2021/05/01 03:36:02;;;;;;;12.55;9.73;;;13.00;92.90;;;;;;6220773;23;20089;-90
2021/05/01 03:38:28;;;;;;;12.05;9.40;;;13.00;92.90;;;;;;6247363;23;20000;-90
2021/05/01 03:40:54;;;;;;;11.15;9.60;;;13.10;93.00;;;;;;6247802;23;20466;-89
2021/05/01 03:43:20;;;;;;;11.88;10.02;;;13.20;92.80;;;;;;6220640;23;19996;-90
2021/05/01 03:45:49;;;;;;;9.40;8.38;;;13.20;92.90;;;;;;6247804;23;20050;-91
2021/05/01 03:48:14;;;;;;;13.38;11.32;;;13.30;92.90;;;;;;6247719;23;20027;-90
2021/05/01 03:50:40;;;;;;;11.73;9.65;;;13.30;93.00;;;;;;6221392;23;20055;-88
2021/05/01 03:53:06;;;;;;;11.90;9.52;;;13.40;92.90;;;;;;6222033;23;20384;-90
2021/05/01 03:55:32;;;;;;;13.85;9.68;;;13.40;92.80;;;;;;6221688;23;20008;-90
2021/05/01 03:57:57;;;;;;;21.98;16.92;;;13.50;92.70;;;;;;6220994;23;20018;-91
2021/05/01 04:00:23;;;;;;;18.10;13.82;;;13.60;93.00;;;;;;6221070;23;20007;-90
2021/05/01 04:02:50;;;;;;;15.77;11.35;;;13.60;93.00;;;;;;6220723;23;20342;-90
2021/05/01 04:05:16;;;;;;;19.05;14.45;;;13.70;92.90;;;;;;6220568;23;20031;-90
2021/05/01 04:07:42;;;;;;;17.67;14.32;;;13.80;93.00;;;;;;6246888;22;20000;-90
2021/05/01 04:10:09;;;;;;;16.40;12.18;;;13.80;93.00;;;;;;6248002;22;20075;-90
2021/05/01 04:12:35;;;;;;;17.75;12.48;;;13.90;92.80;;;;;;6221026;23;20004;-90
2021/05/01 04:15:00;;;;;;;14.95;11.50;;;13.90;92.70;;;;;;6220864;23;20099;-91
2021/05/01 04:17:26;;;;;;;16.55;12.52;;;14.00;92.70;;;;;;6221780;23;20309;-91
2021/05/01 04:19:52;;;;;;;15.80;11.40;;;14.10;92.60;;;;;;6221299;23;20074;-91
2021/05/01 04:22:21;;;;;;;15.98;11.02;;;14.10;92.50;;;;;;6247848;22;20007;-90
2021/05/01 04:24:47;;;;;;;13.68;9.57;;;14.20;92.40;;;;;;6220975;23;20000;-91
2021/05/01 04:27:13;;;;;;;13.00;9.55;;;14.20;92.30;;;;;;6220762;23;20004;-91
2021/05/01 04:29:39;;;;;;;11.45;9.52;;;14.30;92.30;;;;;;6221348;23;20292;-91
2021/05/01 04:32:05;;;;;;;12.35;10.30;;;14.40;92.20;;;;;;6222177;23;20008;-91
2021/05/01 04:34:30;;;;;;;12.95;10.80;;;14.50;92.10;;;;;;6248439;22;20001;-90
2021/05/01 04:36:56;;;;;;;11.88;9.82;;;14.50;92.00;;;;;;6223073;23;20064;-90
2021/05/01 04:39:25;;;;;;;11.00;9.77;;;14.60;91.80;;;;;;6225258;23;20091;-90
2021/05/01 04:41:52;;;;;;;12.05;9.50;;;14.60;91.70;;;;;;6224515;23;20054;-90
2021/05/01 04:44:19;;;;;;;12.18;8.40;;;14.70;91.70;;;;;;6223235;23;20420;-90
2021/05/01 04:46:45;;;;;;;9.15;7.60;;;14.80;91.40;;;;;;6250030;22;20004;-91
2021/05/01 04:49:10;;;;;;;9.82;7.13;;;14.80;91.20;;;;;;6223231;23;20082;-90
2021/05/01 04:51:36;;;;;;;9.70;7.30;;;14.90;91.20;;;;;;6249807;22;20431;-91
2021/05/01 04:54:03;;;;;;;8.82;7.22;;;15.00;91.00;;;;;;6224841;23;20034;-92
2021/05/01 04:56:29;;;;;;;9.02;7.13;;;15.00;90.80;;;;;;6223306;23;20014;-91
2021/05/01 04:58:55;;;;;;;8.25;5.65;;;15.10;90.50;;;;;;6223658;23;20004;-91
2021/05/01 05:01:20;;;;;;;7.82;6.43;;;15.20;90.50;;;;;;6223384;23;20420;-89
2021/05/01 05:03:46;;;;;;;6.32;5.40;;;15.30;90.40;;;;;;6223077;23;19996;-90
2021/05/01 05:06:12;;;;;;;5.68;4.45;;;15.30;90.30;;;;;;6223768;23;20015;-91
2021/05/01 05:08:38;;;;;;;6.90;5.68;;;15.40;90.30;;;;;;6225785;23;20034;-91
2021/05/01 05:11:03;;;;;;;6.25;4.90;;;15.60;90.00;;;;;;6223262;23;20062;-91
2021/05/01 05:13:29;;;;;;;6.75;5.18;;;15.60;89.70;;;;;;6250294;22;20004;-90
2021/05/01 05:15:55;;;;;;;6.13;5.10;;;15.70;89.30;;;;;;6250430;22;20016;-92
2021/05/01 05:18:21;;;;;;;6.65;4.78;;;15.80;88.70;;;;;;6225164;23;19996;-91
2021/05/01 05:20:47;;;;;;;7.45;5.38;;;15.90;88.60;;;;;;6227517;23;20020;-89
2021/05/01 05:23:13;;;;;;;8.38;6.22;;;16.00;87.80;;;;;;6255485;22;20035;-89
2021/05/01 05:25:39;;;;;;;7.22;5.57;;;16.10;87.30;;;;;;6256112;22;20327;-91
2021/05/01 05:28:05;;;;;;;7.05;5.25;;;16.10;87.30;;;;;;6226917;23;20061;-91
2021/05/01 05:30:30;;;;;;;10.25;7.28;;;16.20;87.00;;;;;;6253966;23;20007;-91
2021/05/01 05:32:56;;;;;;;7.80;6.25;;;16.20;86.70;;;;;;6225879;23;20005;-92
2021/05/01 05:35:22;;;;;;;8.38;5.65;;;16.20;86.00;;;;;;6224752;23;20012;-89
2021/05/01 05:37:48;;;;;;;6.05;5.45;;;16.30;86.00;;;;;;6222600;23;20000;-91
2021/05/01 05:40:14;;;;;;;6.40;5.00;;;16.30;85.80;;;;;;6249268;22;20003;-92
2021/05/01 05:42:45;;;;;;;6.30;4.97;;;16.40;85.50;;;;;;6249585;22;19993;-91
2021/05/01 05:45:12;;;;;;;7.03;6.32;;;16.40;85.10;;;;;;6222644;23;20000;-91
2021/05/01 05:47:38;;;;;;;7.82;5.95;;;16.50;84.50;;;;;;6231659;23;20008;-91
2021/05/01 05:50:05;;;;;;;7.55;6.10;;;16.50;84.50;;;;;;6223540;23;20004;-92
2021/05/01 05:52:31;;;;;;;7.75;5.68;;;16.50;84.10;;;;;;6249136;22;20012;-91
2021/05/01 05:54:59;;;;;;;7.28;5.53;;;16.60;83.60;;;;;;6222397;23;20043;-91
2021/05/01 05:57:25;;;;;;;7.32;5.70;;;16.60;83.10;;;;;;6248540;22;19992;-91
2021/05/01 05:59:51;;;;;;;8.73;7.00;;;16.60;83.10;;;;;;6222505;23;20035;-92
2021/05/01 06:02:21;;;;;;;11.57;5.88;;;16.70;83.30;;;;;;6222446;23;20058;-91
2021/05/01 06:04:50;;;;;;;9.23;7.07;;;16.70;82.80;;;;;;6222666;23;20458;-90
2021/05/01 06:07:36;;;;;;;7.30;6.20;;;16.80;82.50;;;;;;6250918;22;20006;-89
2021/05/01 06:10:06;;;;;;;7.22;5.63;;;16.80;81.70;;;;;;6223032;23;20300;-91
2021/05/01 06:12:33;;;;;;;8.75;6.35;;;16.80;82.30;;;;;;6222860;23;20362;-91
2021/05/01 06:15:08;;;;;;;7.28;6.45;;;16.90;82.80;;;;;;6221914;23;20008;-92
2021/05/01 06:17:36;;;;;;;7.32;5.97;;;17.00;81.80;;;;;;6221468;23;20061;-92
2021/05/01 06:20:04;;;;;;;8.50;6.97;;;17.10;81.70;;;;;;6222061;23;20347;-92
2021/05/01 06:22:30;;;;;;;8.38;6.47;;;17.10;81.30;;;;;;6248480;23;20004;-91
2021/05/01 06:24:56;;;;;;;8.70;7.07;;;17.10;81.00;;;;;;6222241;23;20428;-92
2021/05/01 06:27:21;;;;;;;7.95;6.28;;;17.10;80.70;;;;;;6221999;23;20034;-90
2021/05/01 06:29:48;;;;;;;6.60;5.90;;;17.10;80.80;;;;;;6221989;23;20027;-91
2021/05/01 06:32:16;;;;;;;6.72;5.20;;;17.10;80.40;;;;;;6221957;23;20309;-92
2021/05/01 06:34:53;;;;;;;5.88;5.22;;;17.20;80.40;;;;;;6221516;23;20004;-91
2021/05/01 06:37:21;;;;;;;5.97;5.28;;;17.30;80.20;;;;;;6221556;23;20016;-92
2021/05/01 06:39:48;;;;;;;5.88;4.93;;;17.40;80.10;;;;;;6221987;23;20011;-91
2021/05/01 06:42:39;;;;;;;6.82;5.07;;;17.40;79.40;;;;;;6247971;23;19992;-93
2021/05/01 06:45:14;;;;;;;6.07;4.13;;;17.50;79.30;;;;;;6221894;23;20031;-91
2021/05/01 06:48:04;;;;;;;8.27;5.35;;;17.60;77.90;;;;;;6222291;23;19996;-92
2021/05/01 06:50:31;;;;;;;5.97;4.85;;;17.70;77.70;;;;;;6229574;23;20086;-90
2021/05/01 06:52:58;;;;;;;6.43;4.55;;;17.70;77.90;;;;;;6221459;23;20012;-91
2021/05/01 06:55:26;;;;;;;5.72;5.05;;;17.80;77.70;;;;;;6221784;23;20015;-92
2021/05/01 06:57:52;;;;;;;7.05;5.05;;;17.90;77.30;;;;;;6221328;23;20004;-91
2021/05/01 07:00:21;;;;;;;6.25;5.00;;;17.90;76.60;;;;;;6221479;23;20051;-93
2021/05/01 07:03:09;;;;;;;7.90;4.55;;;18.00;76.80;;;;;;6247686;22;20031;-92
2021/05/01 07:05:35;;;;;;;6.60;4.80;;;18.00;76.50;;;;;;6220688;23;20008;-93
2021/05/01 07:08:02;;;;;;;6.05;4.38;;;18.10;75.90;;;;;;6248153;23;19997;-91
2021/05/01 07:10:27;;;;;;;6.43;4.88;;;18.20;75.30;;;;;;6221305;23;20004;-92
2021/05/01 07:12:54;;;;;;;7.50;4.95;;;18.20;75.00;;;;;;6220943;23;20023;-90
2021/05/01 07:15:20;;;;;;;5.18;4.55;;;18.20;74.30;;;;;;6221018;22;20020;-92
2021/05/01 07:17:50;;;;;;;6.35;4.05;;;18.30;73.90;;;;;;6221095;23;20007;-92
2021/05/01 07:20:16;;;;;;;5.00;4.45;;;18.30;73.10;;;;;;6221203;23;20004;-91
2021/05/01 07:22:42;;;;;;;5.78;4.32;;;18.40;73.10;;;;;;6221464;23;20008;-92
2021/05/01 07:25:10;;;;;;;4.22;3.42;;;18.50;72.30;;;;;;6221521;23;20010;-91
2021/05/01 07:27:48;;;;;;;5.90;4.55;;;18.60;72.30;;;;;;6223783;23;20084;-91
2021/05/01 07:30:16;;;;;;;5.32;4.40;;;18.70;70.90;;;;;;6223498;23;20434;-89
2021/05/01 07:32:44;;;;;;;6.28;4.40;;;18.80;69.70;;;;;;6222701;23;20011;-92
2021/05/01 07:35:13;;;;;;;5.30;4.65;;;18.80;68.80;;;;;;6221866;23;20020;-91
2021/05/01 07:37:40;;;;;;;5.22;4.72;;;18.90;68.90;;;;;;6223030;23;20097;-92
2021/05/01 07:40:10;;;;;;;7.20;4.60;;;19.00;68.70;;;;;;6221324;23;20063;-92
2021/05/01 07:42:43;;;;;;;4.45;3.88;;;19.00;68.40;;;;;;6220756;23;20007;-91
2021/05/01 07:45:13;;;;;;;5.15;4.35;;;19.00;68.10;;;;;;6221323;23;20015;-91
2021/05/01 07:47:42;;;;;;;5.15;4.05;;;19.20;67.10;;;;;;6221021;23;20008;-91
2021/05/01 07:50:08;;;;;;;5.20;4.20;;;19.20;66.00;;;;;;6224194;23;20320;-91
2021/05/01 07:52:36;;;;;;;4.80;3.92;;;19.20;65.10;;;;;;6223925;23;20074;-91
2021/05/01 07:55:03;;;;;;;5.85;4.63;;;19.30;63.30;;;;;;6223458;23;20066;-92
2021/05/01 07:57:29;;;;;;;5.75;4.72;;;19.40;63.80;;;;;;6253617;23;20512;-92
2021/05/01 07:59:54;;;;;;;5.15;4.65;;;19.40;63.50;;;;;;6226148;23;20050;-91
2021/05/01 08:02:20;;;;;;;5.68;4.38;;;19.60;63.30;;;;;;6225503;23;20000;-92
2021/05/01 08:04:46;;;;;;;5.63;5.03;;;19.60;63.10;;;;;;6252021;22;20047;-91
2021/05/01 08:07:12;;;;;;;6.18;5.57;;;19.70;62.10;;;;;;6224286;23;20027;-91
2021/05/01 08:09:38;;;;;;;5.25;4.75;;;19.70;60.90;;;;;;6226395;23;20004;-89
2021/05/01 08:12:04;;;;;;;6.53;4.78;;;19.70;60.40;;;;;;6227608;23;20004;-89
2021/05/01 08:14:30;;;;;;;6.68;5.28;;;19.70;60.90;;;;;;6226175;23;20011;-91
2021/05/01 08:16:55;;;;;;;6.32;4.93;;;19.80;60.00;;;;;;6223280;23;20376;-91
2021/05/01 08:19:21;;;;;;;4.97;4.22;;;19.80;59.80;;;;;;6223180;23;20428;-90
2021/05/01 08:21:47;;;;;;;6.25;5.03;;;19.90;59.90;;;;;;6250115;22;20014;-92
2021/05/01 08:24:13;;;;;;;4.82;4.43;;;20.00;58.50;;;;;;6223748;23;20000;-91
2021/05/01 08:26:39;;;;;;;6.15;5.05;;;20.10;58.80;;;;;;6223581;23;20011;-90
2021/05/01 08:29:04;;;;;;;5.13;4.50;;;20.10;58.00;;;;;;6249779;22;20000;-91
2021/05/01 08:31:30;;;;;;;6.75;4.75;;;20.10;57.50;;;;;;6224040;23;20016;-91
2021/05/01 08:33:56;;;;;;;5.60;4.15;;;20.10;57.20;;;;;;6225227;23;20008;-92
2021/05/01 08:36:26;;;;;;;5.80;4.50;;;20.20;57.60;;;;;;6224314;23;20490;-91
2021/05/01 08:38:52;;;;;;;6.82;4.82;;;20.30;57.60;;;;;;6224169;23;19996;-92
2021/05/01 08:41:18;;;;;;;5.00;4.50;;;20.30;57.50;;;;;;6222672;23;20142;-92
2021/05/01 08:43:44;;;;;;;5.28;4.40;;;20.30;57.90;;;;;;6223524;23;20000;-91
2021/05/01 08:46:13;;;;;;;5.85;5.22;;;20.40;57.80;;;;;;6223550;23;20012;-92
2021/05/01 08:48:46;;;;;;;5.88;4.85;;;20.50;57.70;;;;;;6227845;23;20004;-90
2021/05/01 08:51:14;;;;;;;8.23;5.30;;;20.60;56.40;;;;;;6228262;23;20320;-89
2021/05/01 08:53:43;;;;;;;6.10;4.70;;;20.60;56.60;;;;;;6225998;23;20020;-88
2021/05/01 08:56:09;;;;;;;6.40;4.97;;;20.60;56.10;;;;;;6223739;23;20051;-89
2021/05/01 08:58:35;;;;;;;8.60;4.95;;;20.60;56.50;;;;;;6251293;23;20027;-92
2021/05/01 09:01:08;;;;;;;6.82;5.43;;;20.60;56.70;;;;;;6226942;23;20498;-92
2021/05/01 09:03:36;;;;;;;5.63;4.97;;;20.70;56.00;;;;;;6226813;23;20004;-90
2021/05/01 09:06:04;;;;;;;5.80;5.20;;;20.70;55.10;;;;;;6227254;23;20004;-91
2021/05/01 09:08:30;;;;;;;5.78;5.13;;;20.70;54.80;;;;;;6230325;23;20012;-91
2021/05/01 09:11:02;;;;;;;9.00;5.10;;;20.70;55.30;;;;;;6231008;23;20023;-90
2021/05/01 09:13:28;;;;;;;7.47;5.35;;;20.70;54.00;;;;;;6228890;23;20273;-90
2021/05/01 09:16:16;;;;;;;5.82;5.10;;;20.70;55.50;;;;;;6223866;23;20019;-90
2021/05/01 09:18:55;;;;;;;7.00;5.45;;;20.70;55.20;;;;;;6251207;23;20024;-90
2021/05/01 09:21:30;;;;;;;6.35;5.10;;;20.80;55.50;;;;;;6250306;23;20079;-90
2021/05/01 09:23:56;;;;;;;6.03;5.43;;;20.80;54.50;;;;;;6250163;22;20085;-90
2021/05/01 09:26:42;;;;;;;9.32;6.03;;;20.80;54.90;;;;;;6224538;23;20035;-90
2021/05/01 09:29:09;;;;;;;6.05;4.90;;;20.80;54.20;;;;;;6223371;23;20000;-90
2021/05/01 09:31:46;;;;;;;8.13;6.00;;;20.80;55.30;;;;;;6223739;23;20035;-91
2021/05/01 09:34:12;;;;;;;4.95;4.45;;;20.90;55.10;;;;;;6224641;23;20082;-90
2021/05/01 09:36:39;;;;;;;6.22;5.20;;;21.10;55.00;;;;;;6223566;23;20024;-91
2021/05/01 09:39:07;;;;;;;7.28;5.72;;;21.20;54.20;;;;;;6222475;23;20000;-91
2021/05/01 09:41:44;;;;;;;6.82;6.13;;;21.20;53.30;;;;;;6248964;22;19996;-91
2021/05/01 09:44:18;;;;;;;5.82;5.22;;;21.20;52.80;;;;;;6222066;23;20035;-90
2021/05/01 09:46:45;;;;;;;4.88;4.38;;;21.20;53.60;;;;;;6222652;23;20011;-92
2021/05/01 09:49:12;;;;;;;5.75;4.80;;;21.20;54.40;;;;;;6222572;23;20004;-91
2021/05/01 09:51:53;;;;;;;6.85;5.30;;;21.40;54.80;;;;;;6222412;23;19996;-90
2021/05/01 09:54:34;;;;;;;5.28;4.75;;;21.60;53.40;;;;;;6223949;23;20008;-91
2021/05/01 09:57:04;;;;;;;6.78;5.97;;;21.80;54.20;;;;;;6248999;23;20008;-91
2021/05/01 09:59:48;;;;;;;5.57;4.60;;;21.90;53.30;;;;;;6226265;23;20445;-90
2021/05/01 10:02:16;;;;;;;5.85;5.25;;;22.10;53.30;;;;;;6248980;23;20000;-91
2021/05/01 10:04:58;;;;;;;8.07;5.00;;;22.20;53.40;;;;;;6248581;22;20030;-92
2021/05/01 10:07:25;;;;;;;8.02;5.00;;;22.30;53.20;;;;;;6221967;23;20039;-89
2021/05/01 10:09:57;;;;;;;8.15;5.30;;;22.30;52.80;;;;;;6221892;23;20086;-90
2021/05/01 10:12:41;;;;;;;5.97;5.38;;;22.30;52.20;;;;;;6225825;23;20015;-90
2021/05/01 10:15:17;;;;;;;6.07;5.40;;;22.30;52.40;;;;;;6224500;23;20013;-89
2021/05/01 10:17:48;;;;;;;5.10;4.60;;;22.30;52.80;;;;;;6224279;23;20004;-91
2021/05/01 10:20:18;;;;;;;6.20;4.65;;;22.40;52.30;;;;;;6222055;23;20008;-90
2021/05/01 10:22:49;;;;;;;4.90;4.35;;;22.50;51.90;;;;;;6222964;23;20324;-89
2021/05/01 10:25:18;;;;;;;4.20;3.80;;;22.60;50.40;;;;;;6222838;23;20008;-91
2021/05/01 10:28:08;;;;;;;4.45;3.92;;;22.70;50.10;;;;;;6222585;23;20004;-91
2021/05/01 10:30:53;;;;;;;4.45;3.17;;;22.80;49.80;;;;;;6250092;23;19996;-90
2021/05/01 10:36:20;;;;;;;3.72;3.33;;;23.00;48.60;;;;;;6249279;22;20015;-90
2021/05/01 10:39:06;;;;;;;3.72;3.40;;;23.00;46.20;;;;;;6223341;23;20004;-89
2021/05/01 10:41:32;;;;;;;6.28;4.22;;;22.90;46.20;;;;;;6250156;23;20027;-90
2021/05/01 10:44:00;;;;;;;4.70;4.22;;;22.90;46.80;;;;;;6223745;23;20004;-90
2021/05/01 10:46:32;;;;;;;6.68;4.22;;;22.90;46.50;;;;;;6223226;23;20004;-90
2021/05/01 10:49:03;;;;;;;4.90;3.70;;;22.90;46.80;;;;;;6224192;23;20000;-91
2021/05/01 10:51:58;;;;;;;4.47;3.42;;;22.90;47.40;;;;;;6224130;23;20004;-91
2021/05/01 10:54:30;;;;;;;4.15;3.47;;;23.00;46.40;;;;;;6194780;23;20078;-89
2021/05/01 10:56:58;;;;;;;3.53;3.22;;;23.10;47.00;;;;;;6256143;23;20004;-90
2021/05/01 10:59:29;;;;;;;4.65;3.42;;;23.20;46.80;;;;;;6227148;23;20015;-89
2021/05/01 11:01:59;;;;;;;5.03;4.05;;;23.30;47.20;;;;;;6222439;23;20034;-91
2021/05/01 11:04:33;;;;;;;4.88;4.30;;;23.50;46.90;;;;;;6222266;23;20000;-90
2021/05/01 11:07:08;;;;;;;4.15;3.65;;;23.60;46.30;;;;;;6221995;23;20015;-89
2021/05/01 11:10:06;;;;;;;5.13;3.90;;;23.60;46.30;;;;;;6221605;23;20005;-91
2021/05/01 11:12:36;;;;;;;6.25;4.15;;;23.60;45.50;;;;;;6192355;23;20035;-91
2021/05/01 11:15:06;;;;;;;4.50;3.97;;;23.60;45.80;;;;;;6222558;23;20011;-91
2021/05/01 11:17:31;;;;;;;5.30;4.00;;;23.50;45.60;;;;;;6221508;23;20027;-91
2021/05/01 11:20:26;;;;;;;4.43;3.47;;;23.50;45.50;;;;;;6221613;23;20388;-91
2021/05/01 11:22:53;;;;;;;4.22;3.83;;;23.50;44.30;;;;;;6217813;23;20015;-91
2021/05/01 11:25:23;;;;;;;4.57;3.88;;;23.50;45.10;;;;;;6223623;23;20190;-90
2021/05/01 11:27:52;;;;;;;4.15;3.45;;;23.50;45.00;;;;;;6223955;23;20011;-90
2021/05/01 11:30:24;;;;;;;4.70;4.20;;;23.50;45.20;;;;;;6225368;23;20004;-90
2021/05/01 11:32:51;;;;;;;4.30;3.80;;;23.60;45.00;;;;;;6224670;23;20011;-91
2021/05/01 11:35:26;;;;;;;5.07;4.20;;;23.60;45.10;;;;;;6252963;22;20038;-90
2021/05/01 11:37:53;;;;;;;4.57;3.78;;;23.70;44.70;;;;;;6227395;23;20058;-88
2021/05/01 11:40:22;;;;;;;4.72;3.60;;;23.70;44.90;;;;;;6229372;23;20000;-89
2021/05/01 11:42:49;;;;;;;5.43;4.35;;;23.80;44.70;;;;;;6225129;23;20087;-91
2021/05/01 11:45:19;;;;;;;4.35;3.85;;;23.80;44.30;;;;;;6223736;23;20019;-91
2021/05/01 11:48:02;;;;;;;5.03;4.25;;;23.80;44.10;;;;;;6222194;23;20454;-91
2021/05/01 11:50:29;;;;;;;5.75;3.65;;;23.70;43.90;;;;;;6222664;23;20000;-91
2021/05/01 11:53:15;;;;;;;5.63;4.70;;;23.70;44.40;;;;;;6222160;23;20023;-90
2021/05/01 11:55:44;;;;;;;4.90;4.20;;;23.70;44.20;;;;;;6150857;23;20353;-90
2021/05/01 11:58:31;;;;;;;5.57;4.28;;;23.80;44.50;;;;;;6249498;22;19996;-90
2021/05/01 12:01:16;;;;;;;5.53;4.82;;;23.80;43.70;;;;;;6223150;23;20311;-90
2021/05/01 12:03:52;;;;;;;5.30;4.43;;;23.90;44.30;;;;;;6223605;23;20424;-90
2021/05/01 12:06:44;;;;;;;7.07;4.53;;;24.00;44.00;;;;;;6222205;23;20059;-90
2021/05/01 12:09:19;;;;;;;4.32;3.92;;;24.10;43.80;;;;;;6223234;23;20300;-90
2021/05/01 12:11:46;;;;;;;4.85;4.15;;;24.10;43.60;;;;;;6222922;23;20367;-91
2021/05/01 12:14:13;;;;;;;4.90;4.40;;;24.00;43.40;;;;;;6223815;23;20009;-90
2021/05/01 12:16:41;;;;;;;4.65;4.20;;;24.00;43.20;;;;;;6222710;23;20012;-91
2021/05/01 12:19:07;;;;;;;5.85;5.05;;;24.10;43.30;;;;;;6227656;23;20000;-88
2021/05/01 12:21:53;;;;;;;4.72;4.28;;;24.20;43.00;;;;;;6227657;23;20004;-91
2021/05/01 12:24:25;;;;;;;4.63;4.20;;;24.30;42.30;;;;;;6248951;23;20420;-91
2021/05/01 12:26:51;;;;;;;5.20;4.33;;;24.60;42.70;;;;;;6221246;23;20004;-90
2021/05/01 12:29:22;;;;;;;6.15;5.55;;;24.80;42.80;;;;;;6223348;23;20074;-90
2021/05/01 12:32:09;;;;;;;7.00;5.80;;;25.20;43.00;;;;;;6222101;23;20004;-92
2021/05/01 12:34:58;;;;;;;7.30;6.60;;;25.60;42.20;;;;;;6248361;23;20432;-92
2021/05/01 12:37:27;;;;;;;7.15;6.00;;;26.10;42.30;;;;;;6205647;23;20019;-91
2021/05/01 12:39:53;;;;;;;6.18;5.45;;;26.40;42.70;;;;;;6221380;23;20007;-91
2021/05/01 12:42:26;;;;;;;5.72;5.22;;;26.80;42.70;;;;;;6222052;23;20027;-92
2021/05/01 12:44:52;;;;;;;6.82;5.50;;;27.10;42.30;;;;;;6222393;23;20005;-90
2021/05/01 12:47:50;;;;;;;7.28;5.57;;;27.50;42.00;;;;;;6221614;23;20035;-91
2021/05/01 12:50:26;;;;;;;7.22;5.60;;;27.80;40.90;;;;;;6140226;23;20008;-91
2021/05/01 12:53:12;;;;;;;6.60;5.10;;;28.10;40.70;;;;;;6221207;23;20420;-90
2021/05/01 12:56:17;;;;;;;7.00;4.65;;;28.20;40.60;;;;;;6221459;23;20012;-91
2021/05/01 12:58:44;;;;;;;5.32;4.47;;;28.10;39.20;;;;;;6222759;23;20004;-91